createdAt,value
2018-09-18T00:03:09.732Z,12.17
2018-09-18T00:08:39.012Z,11.43
2018-09-18T00:14:08.474Z,13.23
2018-09-18T00:19:37.672Z,11.43
2018-09-18T00:25:06.941Z,12.83
2018-09-18T00:30:36.122Z,23.77
2018-09-18T00:36:05.449Z,20.20
2018-09-18T00:41:34.635Z,12.53
2018-09-18T00:47:03.943Z,13.60
2018-09-18T00:52:33.146Z,11.90
2018-09-18T00:58:02.314Z,11.93
2018-09-18T01:03:31.571Z,11.27
2018-09-18T01:09:00.782Z,11.50
2018-09-18T01:14:29.996Z,10.87
2018-09-18T01:19:59.196Z,12.37
2018-09-18T01:25:28.391Z,12.57
2018-09-18T01:30:57.676Z,12.03
2018-09-18T01:36:26.936Z,10.80
2018-09-18T01:41:57.192Z,10.70
2018-09-18T01:47:26.407Z,13.03
2018-09-18T01:52:55.755Z,11.53
2018-09-18T01:58:24.947Z,11.40
2018-09-18T02:03:54.294Z,12.30
2018-09-18T02:09:24.193Z,12.60
2018-09-18T02:14:53.551Z,11.70
2018-09-18T02:20:22.739Z,10.67
2018-09-18T02:25:51.952Z,12.10
2018-09-18T02:31:21.199Z,12.70
2018-09-18T02:36:50.439Z,11.33
2018-09-18T02:42:20.420Z,12.13
2018-09-18T02:47:49.625Z,11.50
2018-09-18T02:53:18.924Z,11.37
2018-09-18T02:58:48.212Z,11.30
2018-09-18T03:04:17.476Z,11.20
2018-09-18T03:09:46.690Z,11.40
2018-09-18T03:15:15.986Z,11.50
2018-09-18T03:20:47.001Z,13.50
2018-09-18T03:26:17.019Z,12.53
2018-09-18T03:31:46.403Z,10.60
2018-09-18T03:37:15.647Z,11.77
2018-09-18T03:42:44.976Z,12.30
2018-09-18T03:48:14.287Z,11.70
2018-09-18T03:53:43.599Z,11.47
2018-09-18T03:59:12.885Z,12.47
2018-09-18T04:04:42.114Z,12.20
2018-09-18T04:10:11.590Z,11.80
2018-09-18T04:15:41.580Z,11.23
2018-09-18T04:21:10.841Z,11.00
2018-09-18T04:26:41.294Z,10.47
2018-09-18T04:32:10.720Z,11.30
2018-09-18T04:37:39.965Z,10.50
2018-09-18T04:43:09.312Z,10.80
2018-09-18T04:48:38.770Z,10.87
2018-09-18T04:54:08.157Z,11.90
2018-09-18T04:59:37.523Z,11.03
2018-09-18T05:05:07.040Z,11.37
2018-09-18T05:10:36.907Z,11.30
2018-09-18T05:16:06.234Z,10.00
2018-09-18T05:21:35.651Z,10.60
2018-09-18T05:27:04.966Z,10.10
2018-09-18T05:32:34.193Z,11.20
2018-09-18T05:38:03.464Z,11.03
2018-09-18T05:43:32.692Z,11.43
2018-09-18T05:49:01.939Z,10.33
2018-09-18T05:54:31.174Z,11.27
2018-09-18T06:00:00.428Z,11.10
2018-09-18T06:05:29.669Z,9.80
2018-09-18T06:10:58.859Z,10.00
2018-09-18T06:16:28.080Z,10.68
2018-09-18T06:21:57.907Z,10.30
2018-09-18T06:27:27.103Z,9.70
2018-09-18T06:32:56.341Z,9.28
2018-09-18T06:38:25.516Z,8.93
2018-09-18T06:43:54.888Z,8.73
2018-09-18T06:49:24.082Z,8.43
2018-09-18T06:54:53.441Z,7.60
2018-09-18T07:00:22.711Z,7.90
2018-09-18T07:05:52.365Z,7.90
2018-09-18T07:11:21.612Z,8.30
2018-09-18T07:16:50.824Z,8.70
2018-09-18T07:22:20.103Z,8.78
2018-09-18T07:27:49.337Z,7.37
2018-09-18T07:33:19.618Z,7.97
2018-09-18T07:38:48.860Z,7.90
2018-09-18T07:44:18.083Z,8.10
2018-09-18T07:49:47.278Z,8.57
2018-09-18T07:55:16.603Z,8.35
2018-09-18T08:00:45.871Z,7.40
2018-09-18T08:06:15.150Z,8.53
2018-09-18T08:11:44.412Z,7.63
2018-09-18T08:17:13.728Z,7.00
2018-09-18T08:22:43.020Z,7.40
2018-09-18T08:28:12.258Z,8.30
2018-09-18T08:33:41.609Z,8.00
2018-09-18T08:39:11.009Z,8.20
2018-09-18T08:44:40.487Z,8.20
2018-09-18T08:50:09.756Z,7.60
2018-09-18T08:55:39.006Z,7.23
2018-09-18T09:01:08.340Z,7.50
2018-09-18T09:06:37.672Z,7.00
2018-09-18T09:12:07.024Z,6.97
2018-09-18T09:17:36.212Z,6.67
2018-09-18T09:23:05.539Z,6.35
2018-09-18T09:28:35.115Z,6.53
2018-09-18T09:34:04.330Z,6.23
2018-09-18T09:39:33.492Z,6.50
2018-09-18T09:45:02.774Z,7.30
2018-09-18T09:50:31.946Z,5.97
2018-09-18T09:56:01.179Z,5.83
2018-09-18T10:01:35.793Z,6.23
2018-09-18T10:07:05.068Z,5.70
2018-09-18T10:12:34.268Z,5.80
2018-09-18T10:18:03.529Z,6.22
2018-09-18T10:23:33.171Z,5.83
2018-09-18T10:29:02.417Z,6.30
2018-09-18T10:34:31.640Z,5.87
2018-09-18T10:40:02.873Z,5.60
2018-09-18T10:45:32.210Z,6.03
2018-09-18T10:51:01.439Z,5.97
2018-09-18T10:56:30.636Z,6.13
2018-09-18T11:01:59.838Z,5.70
2018-09-18T11:07:29.076Z,6.07
2018-09-18T11:12:58.313Z,5.65
2018-09-18T11:18:27.547Z,5.20
2018-09-18T11:23:56.866Z,5.40
2018-09-18T11:29:26.102Z,6.57
2018-09-18T11:34:55.301Z,5.50
2018-09-18T11:40:24.478Z,5.40
2018-09-18T11:45:53.869Z,5.37
2018-09-18T11:51:22.954Z,6.43
2018-09-18T11:56:52.383Z,6.53
2018-09-18T12:02:21.503Z,5.70
2018-09-18T12:07:50.668Z,5.83
2018-09-18T12:13:19.857Z,5.42
2018-09-18T12:18:51.132Z,5.03
2018-09-18T12:24:20.341Z,4.77
2018-09-18T12:29:50.685Z,4.70
2018-09-18T12:35:19.916Z,5.27
2018-09-18T12:40:49.260Z,5.30
2018-09-18T12:46:18.446Z,5.37
2018-09-18T12:51:47.623Z,5.00
2018-09-18T12:57:16.947Z,5.10
2018-09-18T13:02:46.098Z,4.67
2018-09-18T13:08:15.437Z,4.70
2018-09-18T13:13:44.716Z,4.73
2018-09-18T13:19:14.039Z,5.20
2018-09-18T13:24:43.708Z,4.40
2018-09-18T13:30:13.112Z,4.70
2018-09-18T13:35:42.542Z,5.00
2018-09-18T13:41:12.129Z,5.03
2018-09-18T13:46:41.985Z,4.60
2018-09-18T13:52:11.784Z,4.77
2018-09-18T13:57:41.351Z,4.53
2018-09-18T14:03:10.756Z,4.40
2018-09-18T14:08:42.564Z,5.07
2018-09-18T14:14:12.071Z,4.27
2018-09-18T14:19:41.554Z,4.10
2018-09-18T14:25:11.112Z,4.30
2018-09-18T14:30:40.668Z,3.43
2018-09-18T14:36:10.048Z,3.60
2018-09-18T14:41:39.958Z,4.60
2018-09-18T14:47:09.343Z,3.50
2018-09-18T14:52:39.786Z,4.23
2018-09-18T14:58:09.107Z,4.50
2018-09-18T15:03:39.062Z,4.93
2018-09-18T15:09:10.425Z,4.43
2018-09-18T15:14:39.827Z,4.43
2018-09-18T15:20:09.840Z,4.33
2018-09-18T15:25:39.819Z,4.97
2018-09-18T15:31:09.428Z,5.17
2018-09-18T15:36:39.643Z,4.67
2018-09-18T15:42:10.271Z,4.80
2018-09-18T15:47:39.966Z,5.10
2018-09-18T15:53:09.699Z,4.60
2018-09-18T15:58:39.320Z,5.10
2018-09-18T16:04:08.891Z,5.53
2018-09-18T16:09:38.298Z,5.23
2018-09-18T16:15:09.983Z,5.90
2018-09-18T16:20:39.929Z,5.90
2018-09-18T16:26:10.779Z,6.40
2018-09-18T16:31:40.599Z,4.77
2018-09-18T16:37:10.394Z,4.60
2018-09-18T16:42:40.249Z,4.53
2018-09-18T16:48:13.458Z,5.00
2018-09-18T16:53:43.004Z,5.17
2018-09-18T16:59:12.673Z,4.73
2018-09-18T17:04:42.704Z,5.27
2018-09-18T17:10:12.279Z,5.07
2018-09-18T17:15:47.555Z,3.73
2018-09-18T17:21:17.156Z,4.27
2018-09-18T17:26:46.617Z,4.00
2018-09-18T17:32:16.335Z,4.47
2018-09-18T17:37:46.042Z,3.70
2018-09-18T17:43:15.613Z,3.20
2018-09-18T17:48:55.497Z,2.77
2018-09-18T17:54:25.041Z,2.40
2018-09-18T17:59:54.305Z,2.33
2018-09-18T18:05:23.856Z,2.40
2018-09-18T18:10:53.543Z,2.67
2018-09-18T18:16:23.982Z,2.27
2018-09-18T18:21:53.263Z,3.07
2018-09-18T18:27:22.583Z,2.60
2018-09-18T18:32:51.953Z,2.43
2018-09-18T18:38:21.156Z,2.20
2018-09-18T18:43:50.340Z,2.60
2018-09-18T18:49:19.573Z,2.17
2018-09-18T18:54:50.996Z,2.83
2018-09-18T19:00:20.548Z,3.10
2018-09-18T19:05:49.878Z,2.60
2018-09-18T19:11:19.106Z,3.13
2018-09-18T19:16:48.517Z,2.90
2018-09-18T19:22:18.270Z,2.67
2018-09-18T19:27:47.719Z,2.40
2018-09-18T19:33:17.266Z,2.20
2018-09-18T19:38:46.511Z,1.50
2018-09-18T19:44:15.985Z,1.70
2018-09-18T19:49:45.451Z,1.53
2018-09-18T19:55:15.315Z,1.90
2018-09-18T20:00:44.612Z,2.07
2018-09-18T20:06:14.175Z,1.90
2018-09-18T20:11:43.606Z,1.73
2018-09-18T20:17:13.174Z,2.50
2018-09-18T20:22:42.526Z,5.20
2018-09-18T20:28:12.266Z,1.70
2018-09-18T20:33:41.680Z,1.60
2018-09-18T20:39:12.003Z,3.63
2018-09-18T20:44:43.440Z,3.10
2018-09-18T20:50:12.812Z,5.57
2018-09-18T20:55:42.261Z,2.57
2018-09-18T21:01:11.790Z,4.80
2018-09-18T21:06:53.853Z,2.23
2018-09-18T21:12:24.802Z,1.50
2018-09-18T21:17:55.724Z,1.77
2018-09-18T21:23:25.093Z,2.53
2018-09-18T21:28:54.593Z,3.50
2018-09-18T21:34:24.983Z,1.87
2018-09-18T21:39:54.439Z,2.20
2018-09-18T21:45:23.676Z,1.50
2018-09-18T21:50:52.884Z,1.83
2018-09-18T21:56:22.177Z,2.00
2018-09-18T22:01:51.412Z,1.80
2018-09-18T22:07:20.698Z,1.83
2018-09-18T22:12:49.927Z,1.77
2018-09-18T22:18:19.168Z,1.70
2018-09-18T22:23:48.410Z,1.50
2018-09-18T22:29:17.627Z,1.90
2018-09-18T22:34:47.024Z,1.47
2018-09-18T22:40:16.363Z,1.70
2018-09-18T22:45:45.962Z,1.60
2018-09-18T22:51:15.414Z,1.30
2018-09-18T22:56:44.922Z,1.47
2018-09-18T23:02:14.095Z,1.63
2018-09-18T23:07:43.534Z,1.62
2018-09-18T23:13:12.832Z,1.87
2018-09-18T23:18:42.209Z,2.00
2018-09-18T23:24:11.694Z,1.80
2018-09-18T23:29:43.920Z,1.70
2018-09-18T23:35:13.369Z,1.60
2018-09-18T23:40:42.666Z,1.50
2018-09-18T23:46:12.143Z,2.10
2018-09-18T23:51:41.602Z,1.60
2018-09-18T23:57:10.916Z,1.80
